sensor_id;sensor_type;location;lat;lon;timestamp;P1;durP1;ratioP1;P2;durP2;ratioP2
18249;SDS011;27980;52.126;5.572;2023-11-19T00:00:34;15.73;;;9.50;;
18249;SDS011;27980;52.126;5.572;2023-11-19T00:03:01;19.88;;;10.25;;
18249;SDS011;27980;52.126;5.572;2023-11-19T00:05:29;20.75;;;8.93;;
18249;SDS011;27980;52.126;5.572;2023-11-19T00:07:55;21.52;;;9.30;;
18249;SDS011;27980;52.126;5.572;2023-11-19T00:10:22;19.38;;;10.15;;
18249;SDS011;27980;52.126;5.572;2023-11-19T00:12:48;21.45;;;10.52;;
18249;SDS011;27980;52.126;5.572;2023-11-19T00:15:15;19.77;;;9.10;;
18249;SDS011;27980;52.126;5.572;2023-11-19T00:17:44;17.92;;;8.63;;
18249;SDS011;27980;52.126;5.572;2023-11-19T00:20:11;23.92;;;9.40;;
18249;SDS011;27980;52.126;5.572;2023-11-19T00:22:39;20.58;;;8.90;;
18249;SDS011;27980;52.126;5.572;2023-11-19T00:25:07;22.67;;;8.82;;
18249;SDS011;27980;52.126;5.572;2023-11-19T00:27:33;19.20;;;8.40;;
18249;SDS011;27980;52.126;5.572;2023-11-19T00:30:00;20.60;;;9.68;;
18249;SDS011;27980;52.126;5.572;2023-11-19T00:32:26;32.30;;;8.50;;
18249;SDS011;27980;52.126;5.572;2023-11-19T00:34:53;18.55;;;8.48;;
18249;SDS011;27980;52.126;5.572;2023-11-19T00:37:19;20.95;;;8.30;;
18249;SDS011;27980;52.126;5.572;2023-11-19T00:39:47;25.40;;;8.00;;
18249;SDS011;27980;52.126;5.572;2023-11-19T00:42:13;23.85;;;7.18;;
18249;SDS011;27980;52.126;5.572;2023-11-19T00:44:40;13.95;;;6.90;;
18249;SDS011;27980;52.126;5.572;2023-11-19T00:47:10;20.73;;;7.10;;
18249;SDS011;27980;52.126;5.572;2023-11-19T00:49:37;17.17;;;7.15;;
18249;SDS011;27980;52.126;5.572;2023-11-19T00:52:03;22.40;;;6.80;;
18249;SDS011;27980;52.126;5.572;2023-11-19T00:54:31;20.70;;;6.32;;
18249;SDS011;27980;52.126;5.572;2023-11-19T00:56:59;27.63;;;6.53;;
18249;SDS011;27980;52.126;5.572;2023-11-19T00:59:26;19.80;;;5.22;;
18249;SDS011;27980;52.126;5.572;2023-11-19T01:01:53;21.70;;;6.32;;
18249;SDS011;27980;52.126;5.572;2023-11-19T01:04:21;20.58;;;6.72;;
18249;SDS011;27980;52.126;5.572;2023-11-19T01:06:48;19.83;;;5.97;;
18249;SDS011;27980;52.126;5.572;2023-11-19T01:09:15;18.85;;;4.57;;
18249;SDS011;27980;52.126;5.572;2023-11-19T01:11:41;18.88;;;4.78;;
18249;SDS011;27980;52.126;5.572;2023-11-19T01:14:09;22.77;;;5.80;;
18249;SDS011;27980;52.126;5.572;2023-11-19T01:16:35;20.20;;;5.70;;
18249;SDS011;27980;52.126;5.572;2023-11-19T01:19:02;17.90;;;6.30;;
18249;SDS011;27980;52.126;5.572;2023-11-19T01:21:30;22.23;;;5.82;;
18249;SDS011;27980;52.126;5.572;2023-11-19T01:23:57;23.98;;;6.32;;
18249;SDS011;27980;52.126;5.572;2023-11-19T01:26:23;25.88;;;5.47;;
18249;SDS011;27980;52.126;5.572;2023-11-19T01:28:49;23.83;;;5.95;;
18249;SDS011;27980;52.126;5.572;2023-11-19T01:31:19;28.60;;;4.90;;
18249;SDS011;27980;52.126;5.572;2023-11-19T01:33:49;21.77;;;4.95;;
18249;SDS011;27980;52.126;5.572;2023-11-19T01:36:16;18.10;;;4.88;;
18249;SDS011;27980;52.126;5.572;2023-11-19T01:38:42;23.27;;;5.55;;
18249;SDS011;27980;52.126;5.572;2023-11-19T01:41:10;19.88;;;4.68;;
18249;SDS011;27980;52.126;5.572;2023-11-19T01:43:38;18.95;;;5.38;;
18249;SDS011;27980;52.126;5.572;2023-11-19T01:46:06;27.02;;;4.43;;
18249;SDS011;27980;52.126;5.572;2023-11-19T01:48:38;20.40;;;4.07;;
18249;SDS011;27980;52.126;5.572;2023-11-19T01:51:07;20.10;;;4.38;;
18249;SDS011;27980;52.126;5.572;2023-11-19T01:53:34;28.10;;;5.55;;
18249;SDS011;27980;52.126;5.572;2023-11-19T01:56:01;23.42;;;4.47;;
18249;SDS011;27980;52.126;5.572;2023-11-19T01:58:28;33.40;;;5.68;;
18249;SDS011;27980;52.126;5.572;2023-11-19T02:00:55;21.02;;;5.00;;
18249;SDS011;27980;52.126;5.572;2023-11-19T02:03:25;26.08;;;4.60;;
18249;SDS011;27980;52.126;5.572;2023-11-19T02:05:55;27.92;;;6.47;;
18249;SDS011;27980;52.126;5.572;2023-11-19T02:08:23;25.05;;;5.88;;
18249;SDS011;27980;52.126;5.572;2023-11-19T02:10:49;27.17;;;4.80;;
18249;SDS011;27980;52.126;5.572;2023-11-19T02:13:16;34.50;;;5.32;;
18249;SDS011;27980;52.126;5.572;2023-11-19T02:15:43;22.88;;;4.82;;
18249;SDS011;27980;52.126;5.572;2023-11-19T02:18:19;26.08;;;4.43;;
18249;SDS011;27980;52.126;5.572;2023-11-19T02:20:47;27.05;;;4.65;;
18249;SDS011;27980;52.126;5.572;2023-11-19T02:23:15;19.42;;;3.13;;
18249;SDS011;27980;52.126;5.572;2023-11-19T02:25:41;31.63;;;4.22;;
18249;SDS011;27980;52.126;5.572;2023-11-19T02:28:10;24.00;;;4.35;;
18249;SDS011;27980;52.126;5.572;2023-11-19T02:30:37;27.38;;;4.72;;
18249;SDS011;27980;52.126;5.572;2023-11-19T02:33:04;25.48;;;4.70;;
18249;SDS011;27980;52.126;5.572;2023-11-19T02:35:31;26.88;;;4.22;;
18249;SDS011;27980;52.126;5.572;2023-11-19T02:37:58;28.17;;;3.72;;
18249;SDS011;27980;52.126;5.572;2023-11-19T02:40:25;32.88;;;4.18;;
18249;SDS011;27980;52.126;5.572;2023-11-19T02:42:51;26.67;;;4.45;;
18249;SDS011;27980;52.126;5.572;2023-11-19T02:45:19;25.63;;;4.18;;
18249;SDS011;27980;52.126;5.572;2023-11-19T02:47:47;33.05;;;4.57;;
18249;SDS011;27980;52.126;5.572;2023-11-19T02:50:13;27.42;;;4.10;;
18249;SDS011;27980;52.126;5.572;2023-11-19T02:52:40;28.40;;;5.55;;
18249;SDS011;27980;52.126;5.572;2023-11-19T02:55:07;24.35;;;4.72;;
18249;SDS011;27980;52.126;5.572;2023-11-19T02:57:37;28.73;;;4.53;;
18249;SDS011;27980;52.126;5.572;2023-11-19T03:00:06;39.30;;;4.35;;
18249;SDS011;27980;52.126;5.572;2023-11-19T03:02:39;28.38;;;4.10;;
18249;SDS011;27980;52.126;5.572;2023-11-19T03:05:10;31.77;;;3.97;;
18249;SDS011;27980;52.126;5.572;2023-11-19T03:07:36;25.15;;;3.38;;
18249;SDS011;27980;52.126;5.572;2023-11-19T03:10:02;29.33;;;5.00;;
18249;SDS011;27980;52.126;5.572;2023-11-19T03:12:30;35.40;;;5.28;;
18249;SDS011;27980;52.126;5.572;2023-11-19T03:14:57;23.38;;;4.45;;
18249;SDS011;27980;52.126;5.572;2023-11-19T03:17:23;29.75;;;4.63;;
18249;SDS011;27980;52.126;5.572;2023-11-19T03:19:51;21.92;;;4.80;;
18249;SDS011;27980;52.126;5.572;2023-11-19T03:22:18;20.15;;;4.38;;
18249;SDS011;27980;52.126;5.572;2023-11-19T03:24:46;25.77;;;3.67;;
18249;SDS011;27980;52.126;5.572;2023-11-19T03:27:12;36.97;;;5.57;;
18249;SDS011;27980;52.126;5.572;2023-11-19T03:29:39;22.70;;;4.05;;
18249;SDS011;27980;52.126;5.572;2023-11-19T03:32:05;33.85;;;5.45;;
18249;SDS011;27980;52.126;5.572;2023-11-19T03:34:32;31.90;;;4.07;;
18249;SDS011;27980;52.126;5.572;2023-11-19T03:36:59;25.83;;;4.22;;
18249;SDS011;27980;52.126;5.572;2023-11-19T03:39:26;34.95;;;5.30;;
18249;SDS011;27980;52.126;5.572;2023-11-19T03:41:52;26.60;;;3.97;;
18249;SDS011;27980;52.126;5.572;2023-11-19T03:44:19;23.88;;;5.03;;
18249;SDS011;27980;52.126;5.572;2023-11-19T03:46:46;33.13;;;4.95;;
18249;SDS011;27980;52.126;5.572;2023-11-19T03:49:14;28.80;;;4.18;;
18249;SDS011;27980;52.126;5.572;2023-11-19T03:51:40;29.45;;;3.78;;
18249;SDS011;27980;52.126;5.572;2023-11-19T03:54:08;35.33;;;4.80;;
18249;SDS011;27980;52.126;5.572;2023-11-19T03:56:34;16.30;;;3.63;;
18249;SDS011;27980;52.126;5.572;2023-11-19T03:59:01;30.15;;;4.78;;
18249;SDS011;27980;52.126;5.572;2023-11-19T04:01:27;27.38;;;4.60;;
18249;SDS011;27980;52.126;5.572;2023-11-19T04:03:55;26.10;;;3.97;;
18249;SDS011;27980;52.126;5.572;2023-11-19T04:06:22;22.05;;;3.58;;
18249;SDS011;27980;52.126;5.572;2023-11-19T04:08:48;31.45;;;4.20;;
18249;SDS011;27980;52.126;5.572;2023-11-19T04:11:16;35.58;;;5.45;;
18249;SDS011;27980;52.126;5.572;2023-11-19T04:13:42;34.47;;;4.22;;
18249;SDS011;27980;52.126;5.572;2023-11-19T04:16:09;31.33;;;4.85;;
18249;SDS011;27980;52.126;5.572;2023-11-19T04:18:35;35.25;;;3.78;;
18249;SDS011;27980;52.126;5.572;2023-11-19T04:21:02;35.25;;;4.32;;
18249;SDS011;27980;52.126;5.572;2023-11-19T04:23:31;28.52;;;4.45;;
18249;SDS011;27980;52.126;5.572;2023-11-19T04:25:58;25.55;;;3.83;;
18249;SDS011;27980;52.126;5.572;2023-11-19T04:28:26;36.70;;;5.20;;
18249;SDS011;27980;52.126;5.572;2023-11-19T04:30:52;26.40;;;4.50;;
18249;SDS011;27980;52.126;5.572;2023-11-19T04:33:18;31.13;;;5.13;;
18249;SDS011;27980;52.126;5.572;2023-11-19T04:35:45;30.33;;;4.10;;
18249;SDS011;27980;52.126;5.572;2023-11-19T04:38:11;25.45;;;4.65;;
18249;SDS011;27980;52.126;5.572;2023-11-19T04:40:37;32.50;;;5.18;;
18249;SDS011;27980;52.126;5.572;2023-11-19T04:43:04;28.35;;;3.95;;
18249;SDS011;27980;52.126;5.572;2023-11-19T04:45:33;28.83;;;4.95;;
18249;SDS011;27980;52.126;5.572;2023-11-19T04:48:00;30.25;;;4.90;;
18249;SDS011;27980;52.126;5.572;2023-11-19T04:50:26;36.33;;;4.63;;
18249;SDS011;27980;52.126;5.572;2023-11-19T04:52:53;27.73;;;5.30;;
18249;SDS011;27980;52.126;5.572;2023-11-19T04:55:21;30.10;;;4.38;;
18249;SDS011;27980;52.126;5.572;2023-11-19T04:57:48;25.70;;;4.55;;
18249;SDS011;27980;52.126;5.572;2023-11-19T05:00:14;28.65;;;4.50;;
18249;SDS011;27980;52.126;5.572;2023-11-19T05:02:42;33.80;;;4.03;;
18249;SDS011;27980;52.126;5.572;2023-11-19T05:05:09;34.08;;;4.82;;
18249;SDS011;27980;52.126;5.572;2023-11-19T05:07:35;17.00;;;3.50;;
18249;SDS011;27980;52.126;5.572;2023-11-19T05:10:02;30.73;;;5.05;;
18249;SDS011;27980;52.126;5.572;2023-11-19T05:12:29;30.55;;;5.63;;
18249;SDS011;27980;52.126;5.572;2023-11-19T05:14:56;25.85;;;3.63;;
18249;SDS011;27980;52.126;5.572;2023-11-19T05:17:23;35.15;;;4.55;;
18249;SDS011;27980;52.126;5.572;2023-11-19T05:19:51;24.27;;;4.07;;
18249;SDS011;27980;52.126;5.572;2023-11-19T05:22:17;31.10;;;4.13;;
18249;SDS011;27980;52.126;5.572;2023-11-19T05:24:45;28.85;;;4.63;;
18249;SDS011;27980;52.126;5.572;2023-11-19T05:27:13;30.25;;;4.18;;
18249;SDS011;27980;52.126;5.572;2023-11-19T05:29:40;34.10;;;4.60;;
18249;SDS011;27980;52.126;5.572;2023-11-19T05:32:06;23.73;;;4.05;;
18249;SDS011;27980;52.126;5.572;2023-11-19T05:34:33;27.73;;;4.43;;
18249;SDS011;27980;52.126;5.572;2023-11-19T05:37:01;37.63;;;5.50;;
18249;SDS011;27980;52.126;5.572;2023-11-19T05:39:27;33.67;;;4.13;;
18249;SDS011;27980;52.126;5.572;2023-11-19T05:41:54;30.83;;;4.50;;
18249;SDS011;27980;52.126;5.572;2023-11-19T05:44:21;34.88;;;4.15;;
18249;SDS011;27980;52.126;5.572;2023-11-19T05:46:47;27.55;;;4.10;;
18249;SDS011;27980;52.126;5.572;2023-11-19T05:49:13;29.88;;;5.60;;
18249;SDS011;27980;52.126;5.572;2023-11-19T05:51:40;33.45;;;4.00;;
18249;SDS011;27980;52.126;5.572;2023-11-19T05:54:08;33.13;;;3.95;;
18249;SDS011;27980;52.126;5.572;2023-11-19T05:56:35;27.20;;;4.30;;
18249;SDS011;27980;52.126;5.572;2023-11-19T05:59:02;27.77;;;4.10;;
18249;SDS011;27980;52.126;5.572;2023-11-19T06:01:33;30.45;;;4.32;;
18249;SDS011;27980;52.126;5.572;2023-11-19T06:04:00;39.58;;;5.13;;
18249;SDS011;27980;52.126;5.572;2023-11-19T06:06:27;29.83;;;4.68;;
18249;SDS011;27980;52.126;5.572;2023-11-19T06:08:54;32.47;;;4.97;;
18249;SDS011;27980;52.126;5.572;2023-11-19T06:11:21;29.63;;;5.35;;
18249;SDS011;27980;52.126;5.572;2023-11-19T06:13:48;28.23;;;5.15;;
18249;SDS011;27980;52.126;5.572;2023-11-19T06:16:15;28.35;;;4.10;;
18249;SDS011;27980;52.126;5.572;2023-11-19T06:18:41;36.03;;;6.10;;
18249;SDS011;27980;52.126;5.572;2023-11-19T06:21:09;28.27;;;4.35;;
18249;SDS011;27980;52.126;5.572;2023-11-19T06:23:35;35.05;;;5.85;;
18249;SDS011;27980;52.126;5.572;2023-11-19T06:26:02;29.10;;;5.43;;
18249;SDS011;27980;52.126;5.572;2023-11-19T06:28:29;34.50;;;5.22;;
18249;SDS011;27980;52.126;5.572;2023-11-19T06:30:56;28.83;;;4.63;;
18249;SDS011;27980;52.126;5.572;2023-11-19T06:33:23;31.73;;;5.30;;
18249;SDS011;27980;52.126;5.572;2023-11-19T06:35:49;46.38;;;5.40;;
18249;SDS011;27980;52.126;5.572;2023-11-19T06:38:16;35.60;;;4.57;;
18249;SDS011;27980;52.126;5.572;2023-11-19T06:40:42;41.65;;;4.40;;
18249;SDS011;27980;52.126;5.572;2023-11-19T06:43:09;34.72;;;4.25;;
18249;SDS011;27980;52.126;5.572;2023-11-19T06:45:36;20.92;;;3.70;;
18249;SDS011;27980;52.126;5.572;2023-11-19T06:48:03;34.22;;;3.97;;
18249;SDS011;27980;52.126;5.572;2023-11-19T06:50:32;33.38;;;4.95;;
18249;SDS011;27980;52.126;5.572;2023-11-19T06:52:58;32.50;;;4.85;;
18249;SDS011;27980;52.126;5.572;2023-11-19T06:55:26;27.70;;;4.72;;
18249;SDS011;27980;52.126;5.572;2023-11-19T06:57:52;26.02;;;4.43;;
18249;SDS011;27980;52.126;5.572;2023-11-19T07:00:18;22.50;;;3.65;;
18249;SDS011;27980;52.126;5.572;2023-11-19T07:02:47;33.25;;;4.18;;
18249;SDS011;27980;52.126;5.572;2023-11-19T07:05:15;35.03;;;5.53;;
18249;SDS011;27980;52.126;5.572;2023-11-19T07:07:41;37.92;;;4.95;;
18249;SDS011;27980;52.126;5.572;2023-11-19T07:10:08;27.77;;;4.50;;
18249;SDS011;27980;52.126;5.572;2023-11-19T07:12:36;25.75;;;3.53;;
18249;SDS011;27980;52.126;5.572;2023-11-19T07:15:02;21.92;;;4.45;;
18249;SDS011;27980;52.126;5.572;2023-11-19T07:17:29;25.23;;;4.32;;
18249;SDS011;27980;52.126;5.572;2023-11-19T07:19:57;23.42;;;3.95;;
18249;SDS011;27980;52.126;5.572;2023-11-19T07:22:24;39.15;;;5.25;;
18249;SDS011;27980;52.126;5.572;2023-11-19T07:24:51;33.70;;;5.25;;
18249;SDS011;27980;52.126;5.572;2023-11-19T07:27:18;27.83;;;4.63;;
18249;SDS011;27980;52.126;5.572;2023-11-19T07:29:44;28.17;;;5.70;;
18249;SDS011;27980;52.126;5.572;2023-11-19T07:32:11;32.90;;;4.60;;
18249;SDS011;27980;52.126;5.572;2023-11-19T07:34:38;30.55;;;3.67;;
18249;SDS011;27980;52.126;5.572;2023-11-19T07:37:06;30.27;;;4.20;;
18249;SDS011;27980;52.126;5.572;2023-11-19T07:39:32;30.77;;;4.07;;
18249;SDS011;27980;52.126;5.572;2023-11-19T07:42:00;37.83;;;5.07;;
18249;SDS011;27980;52.126;5.572;2023-11-19T07:44:26;33.88;;;4.90;;
18249;SDS011;27980;52.126;5.572;2023-11-19T07:46:53;38.58;;;5.05;;
18249;SDS011;27980;52.126;5.572;2023-11-19T07:49:19;36.28;;;5.00;;
18249;SDS011;27980;52.126;5.572;2023-11-19T07:51:45;30.50;;;4.40;;
18249;SDS011;27980;52.126;5.572;2023-11-19T07:54:14;26.60;;;4.03;;
18249;SDS011;27980;52.126;5.572;2023-11-19T07:56:42;23.10;;;3.78;;
18249;SDS011;27980;52.126;5.572;2023-11-19T07:59:08;30.10;;;4.45;;
18249;SDS011;27980;52.126;5.572;2023-11-19T08:01:35;26.75;;;3.85;;
18249;SDS011;27980;52.126;5.572;2023-11-19T08:04:01;24.60;;;4.25;;
18249;SDS011;27980;52.126;5.572;2023-11-19T08:06:28;24.40;;;4.25;;
18249;SDS011;27980;52.126;5.572;2023-11-19T08:08:54;27.10;;;3.40;;
18249;SDS011;27980;52.126;5.572;2023-11-19T08:11:22;20.17;;;4.47;;
18249;SDS011;27980;52.126;5.572;2023-11-19T08:13:48;29.48;;;3.95;;
18249;SDS011;27980;52.126;5.572;2023-11-19T08:16:15;29.55;;;3.90;;
18249;SDS011;27980;52.126;5.572;2023-11-19T08:18:41;36.45;;;4.82;;
18249;SDS011;27980;52.126;5.572;2023-11-19T08:21:09;33.78;;;4.93;;
18249;SDS011;27980;52.126;5.572;2023-11-19T08:23:35;31.67;;;4.50;;
18249;SDS011;27980;52.126;5.572;2023-11-19T08:26:02;21.45;;;3.53;;
18249;SDS011;27980;52.126;5.572;2023-11-19T08:28:31;21.63;;;5.20;;
18249;SDS011;27980;52.126;5.572;2023-11-19T08:30:59;29.15;;;3.67;;
18249;SDS011;27980;52.126;5.572;2023-11-19T08:33:26;26.13;;;4.85;;
18249;SDS011;27980;52.126;5.572;2023-11-19T08:35:53;20.73;;;3.35;;
18249;SDS011;27980;52.126;5.572;2023-11-19T08:38:19;24.83;;;3.65;;
18249;SDS011;27980;52.126;5.572;2023-11-19T08:40:45;25.13;;;4.20;;
18249;SDS011;27980;52.126;5.572;2023-11-19T08:43:12;36.80;;;4.43;;
18249;SDS011;27980;52.126;5.572;2023-11-19T08:45:40;26.05;;;3.65;;
18249;SDS011;27980;52.126;5.572;2023-11-19T08:48:06;28.20;;;4.13;;
18249;SDS011;27980;52.126;5.572;2023-11-19T08:50:34;17.88;;;3.13;;
18249;SDS011;27980;52.126;5.572;2023-11-19T08:53:01;27.88;;;4.85;;
18249;SDS011;27980;52.126;5.572;2023-11-19T08:55:31;22.85;;;4.22;;
18249;SDS011;27980;52.126;5.572;2023-11-19T08:57:58;19.95;;;2.95;;
18249;SDS011;27980;52.126;5.572;2023-11-19T09:00:24;23.77;;;3.47;;
18249;SDS011;27980;52.126;5.572;2023-11-19T09:02:52;19.33;;;3.85;;
18249;SDS011;27980;52.126;5.572;2023-11-19T09:05:18;17.35;;;3.17;;
18249;SDS011;27980;52.126;5.572;2023-11-19T09:07:48;22.70;;;3.83;;
18249;SDS011;27980;52.126;5.572;2023-11-19T09:10:14;27.55;;;3.53;;
18249;SDS011;27980;52.126;5.572;2023-11-19T09:12:41;22.20;;;3.85;;
18249;SDS011;27980;52.126;5.572;2023-11-19T09:15:08;19.85;;;3.47;;
18249;SDS011;27980;52.126;5.572;2023-11-19T09:17:35;20.85;;;4.05;;
18249;SDS011;27980;52.126;5.572;2023-11-19T09:20:03;22.15;;;3.20;;
18249;SDS011;27980;52.126;5.572;2023-11-19T09:22:30;18.67;;;3.38;;
18249;SDS011;27980;52.126;5.572;2023-11-19T09:24:57;21.50;;;3.42;;
18249;SDS011;27980;52.126;5.572;2023-11-19T09:27:25;14.85;;;3.15;;
18249;SDS011;27980;52.126;5.572;2023-11-19T09:29:51;22.95;;;4.85;;
18249;SDS011;27980;52.126;5.572;2023-11-19T09:32:22;20.10;;;3.25;;
18249;SDS011;27980;52.126;5.572;2023-11-19T09:34:49;25.52;;;4.90;;
18249;SDS011;27980;52.126;5.572;2023-11-19T09:37:16;18.45;;;3.10;;
18249;SDS011;27980;52.126;5.572;2023-11-19T09:39:43;23.92;;;3.45;;
18249;SDS011;27980;52.126;5.572;2023-11-19T09:42:11;26.33;;;4.60;;
18249;SDS011;27980;52.126;5.572;2023-11-19T09:44:38;25.25;;;4.13;;
18249;SDS011;27980;52.126;5.572;2023-11-19T09:47:05;31.15;;;4.35;;
18249;SDS011;27980;52.126;5.572;2023-11-19T09:49:31;18.70;;;3.25;;
18249;SDS011;27980;52.126;5.572;2023-11-19T09:51:58;31.67;;;3.75;;
18249;SDS011;27980;52.126;5.572;2023-11-19T09:54:26;22.35;;;4.00;;
18249;SDS011;27980;52.126;5.572;2023-11-19T09:56:52;33.80;;;3.70;;
18249;SDS011;27980;52.126;5.572;2023-11-19T09:59:20;27.05;;;4.03;;
18249;SDS011;27980;52.126;5.572;2023-11-19T10:01:48;20.58;;;3.80;;
18249;SDS011;27980;52.126;5.572;2023-11-19T10:04:15;17.77;;;3.30;;
18249;SDS011;27980;52.126;5.572;2023-11-19T10:06:42;20.58;;;3.30;;
18249;SDS011;27980;52.126;5.572;2023-11-19T10:09:08;20.10;;;3.63;;
18249;SDS011;27980;52.126;5.572;2023-11-19T10:11:36;20.98;;;3.45;;
18249;SDS011;27980;52.126;5.572;2023-11-19T10:14:02;22.25;;;3.85;;
18249;SDS011;27980;52.126;5.572;2023-11-19T10:16:29;24.67;;;4.07;;
18249;SDS011;27980;52.126;5.572;2023-11-19T10:18:57;22.92;;;4.32;;
18249;SDS011;27980;52.126;5.572;2023-11-19T10:21:24;28.05;;;4.32;;
18249;SDS011;27980;52.126;5.572;2023-11-19T10:23:53;24.73;;;3.17;;
18249;SDS011;27980;52.126;5.572;2023-11-19T10:26:21;32.25;;;4.13;;
18249;SDS011;27980;52.126;5.572;2023-11-19T10:28:49;25.73;;;4.40;;
18249;SDS011;27980;52.126;5.572;2023-11-19T10:31:16;23.60;;;3.85;;
18249;SDS011;27980;52.126;5.572;2023-11-19T10:33:43;20.60;;;3.65;;
18249;SDS011;27980;52.126;5.572;2023-11-19T10:36:10;21.52;;;3.80;;
18249;SDS011;27980;52.126;5.572;2023-11-19T10:38:37;21.92;;;3.95;;
18249;SDS011;27980;52.126;5.572;2023-11-19T10:41:04;26.23;;;5.13;;
18249;SDS011;27980;52.126;5.572;2023-11-19T10:43:30;22.10;;;3.30;;
18249;SDS011;27980;52.126;5.572;2023-11-19T10:46:09;23.00;;;3.50;;
18249;SDS011;27980;52.126;5.572;2023-11-19T10:48:36;27.92;;;5.45;;
18249;SDS011;27980;52.126;5.572;2023-11-19T10:51:04;19.92;;;3.65;;
18249;SDS011;27980;52.126;5.572;2023-11-19T10:53:31;22.73;;;3.53;;
18249;SDS011;27980;52.126;5.572;2023-11-19T10:55:59;25.23;;;3.70;;
18249;SDS011;27980;52.126;5.572;2023-11-19T10:58:29;23.25;;;3.92;;
18249;SDS011;27980;52.126;5.572;2023-11-19T11:00:58;29.45;;;3.40;;
18249;SDS011;27980;52.126;5.572;2023-11-19T11:03:29;23.40;;;3.53;;
18249;SDS011;27980;52.126;5.572;2023-11-19T11:05:57;18.67;;;3.03;;
18249;SDS011;27980;52.126;5.572;2023-11-19T11:08:24;16.05;;;2.88;;
18249;SDS011;27980;52.126;5.572;2023-11-19T11:10:52;16.70;;;3.63;;
18249;SDS011;27980;52.126;5.572;2023-11-19T11:13:19;25.73;;;3.78;;
18249;SDS011;27980;52.126;5.572;2023-11-19T11:15:45;18.27;;;3.72;;
18249;SDS011;27980;52.126;5.572;2023-11-19T11:18:12;23.85;;;3.65;;
18249;SDS011;27980;52.126;5.572;2023-11-19T11:20:40;20.25;;;3.67;;
18249;SDS011;27980;52.126;5.572;2023-11-19T11:25:50;20.92;;;3.72;;
18249;SDS011;27980;52.126;5.572;2023-11-19T11:28:23;19.55;;;3.60;;
18249;SDS011;27980;52.126;5.572;2023-11-19T11:31:00;17.48;;;3.55;;
18249;SDS011;27980;52.126;5.572;2023-11-19T11:33:34;24.98;;;4.00;;
18249;SDS011;27980;52.126;5.572;2023-11-19T11:36:10;17.95;;;3.25;;
18249;SDS011;27980;52.126;5.572;2023-11-19T11:38:39;24.30;;;3.28;;
18249;SDS011;27980;52.126;5.572;2023-11-19T11:41:16;23.95;;;3.95;;
18249;SDS011;27980;52.126;5.572;2023-11-19T11:43:44;29.30;;;3.83;;
18249;SDS011;27980;52.126;5.572;2023-11-19T11:48:52;20.40;;;3.65;;
18249;SDS011;27980;52.126;5.572;2023-11-19T11:51:20;18.30;;;3.60;;
18249;SDS011;27980;52.126;5.572;2023-11-19T11:54:07;24.75;;;3.50;;
18249;SDS011;27980;52.126;5.572;2023-11-19T11:56:36;19.65;;;3.03;;
18249;SDS011;27980;52.126;5.572;2023-11-19T11:59:03;20.55;;;3.95;;
18249;SDS011;27980;52.126;5.572;2023-11-19T12:01:29;24.08;;;2.88;;
18249;SDS011;27980;52.126;5.572;2023-11-19T12:03:56;25.73;;;3.35;;
18249;SDS011;27980;52.126;5.572;2023-11-19T12:06:24;19.38;;;3.40;;
18249;SDS011;27980;52.126;5.572;2023-11-19T12:08:53;20.75;;;3.95;;
18249;SDS011;27980;52.126;5.572;2023-11-19T12:11:28;18.60;;;3.33;;
18249;SDS011;27980;52.126;5.572;2023-11-19T12:13:57;18.55;;;3.40;;
18249;SDS011;27980;52.126;5.572;2023-11-19T12:16:27;21.65;;;3.28;;
18249;SDS011;27980;52.126;5.572;2023-11-19T12:18:54;19.35;;;3.13;;
18249;SDS011;27980;52.126;5.572;2023-11-19T12:21:29;18.20;;;3.10;;
18249;SDS011;27980;52.126;5.572;2023-11-19T12:23:57;25.85;;;3.58;;
18249;SDS011;27980;52.126;5.572;2023-11-19T12:26:36;19.13;;;2.75;;
18249;SDS011;27980;52.126;5.572;2023-11-19T12:29:03;15.73;;;3.00;;
18249;SDS011;27980;52.126;5.572;2023-11-19T12:31:31;9.88;;;2.55;;
18249;SDS011;27980;52.126;5.572;2023-11-19T12:34:05;16.25;;;2.75;;
18249;SDS011;27980;52.126;5.572;2023-11-19T12:36:32;10.63;;;2.38;;
18249;SDS011;27980;52.126;5.572;2023-11-19T12:38:59;15.57;;;2.60;;
18249;SDS011;27980;52.126;5.572;2023-11-19T12:41:26;16.58;;;2.92;;
18249;SDS011;27980;52.126;5.572;2023-11-19T12:43:53;14.75;;;2.90;;
18249;SDS011;27980;52.126;5.572;2023-11-19T12:46:20;14.85;;;2.83;;
18249;SDS011;27980;52.126;5.572;2023-11-19T12:48:47;14.90;;;2.88;;
18249;SDS011;27980;52.126;5.572;2023-11-19T12:51:14;20.73;;;3.13;;
18249;SDS011;27980;52.126;5.572;2023-11-19T12:53:51;24.38;;;3.35;;
18249;SDS011;27980;52.126;5.572;2023-11-19T12:56:19;25.73;;;4.10;;
18249;SDS011;27980;52.126;5.572;2023-11-19T12:58:46;17.45;;;2.88;;
18249;SDS011;27980;52.126;5.572;2023-11-19T13:01:15;24.35;;;3.60;;
18249;SDS011;27980;52.126;5.572;2023-11-19T13:03:42;17.40;;;2.90;;
18249;SDS011;27980;52.126;5.572;2023-11-19T13:06:09;22.02;;;3.78;;
18249;SDS011;27980;52.126;5.572;2023-11-19T13:08:36;18.30;;;3.65;;
18249;SDS011;27980;52.126;5.572;2023-11-19T13:11:05;19.60;;;3.55;;
18249;SDS011;27980;52.126;5.572;2023-11-19T13:13:32;11.32;;;2.72;;
18249;SDS011;27980;52.126;5.572;2023-11-19T13:16:03;22.00;;;3.25;;
18249;SDS011;27980;52.126;5.572;2023-11-19T13:18:30;21.70;;;3.53;;
18249;SDS011;27980;52.126;5.572;2023-11-19T13:20:56;18.63;;;3.40;;
18249;SDS011;27980;52.126;5.572;2023-11-19T13:23:23;17.95;;;3.70;;
18249;SDS011;27980;52.126;5.572;2023-11-19T13:25:49;20.75;;;3.78;;
18249;SDS011;27980;52.126;5.572;2023-11-19T13:28:17;15.77;;;2.75;;
18249;SDS011;27980;52.126;5.572;2023-11-19T13:30:44;18.05;;;3.60;;
18249;SDS011;27980;52.126;5.572;2023-11-19T13:33:10;18.92;;;2.97;;
18249;SDS011;27980;52.126;5.572;2023-11-19T13:35:38;15.13;;;3.83;;
18249;SDS011;27980;52.126;5.572;2023-11-19T13:38:05;26.08;;;2.88;;
18249;SDS011;27980;52.126;5.572;2023-11-19T13:40:33;22.15;;;3.38;;
18249;SDS011;27980;52.126;5.572;2023-11-19T13:43:00;13.77;;;2.70;;
18249;SDS011;27980;52.126;5.572;2023-11-19T13:45:27;16.73;;;2.95;;
18249;SDS011;27980;52.126;5.572;2023-11-19T13:47:54;18.33;;;3.38;;
18249;SDS011;27980;52.126;5.572;2023-11-19T13:50:20;20.42;;;2.95;;
18249;SDS011;27980;52.126;5.572;2023-11-19T13:52:48;23.98;;;3.97;;
18249;SDS011;27980;52.126;5.572;2023-11-19T13:55:14;22.50;;;3.88;;
18249;SDS011;27980;52.126;5.572;2023-11-19T13:57:41;26.25;;;4.18;;
18249;SDS011;27980;52.126;5.572;2023-11-19T14:00:09;21.83;;;3.72;;
18249;SDS011;27980;52.126;5.572;2023-11-19T14:02:39;20.15;;;3.03;;
18249;SDS011;27980;52.126;5.572;2023-11-19T14:05:06;13.77;;;3.03;;
18249;SDS011;27980;52.126;5.572;2023-11-19T14:07:32;15.57;;;2.55;;
18249;SDS011;27980;52.126;5.572;2023-11-19T14:09:59;20.02;;;3.30;;
18249;SDS011;27980;52.126;5.572;2023-11-19T14:12:25;15.13;;;3.10;;
18249;SDS011;27980;52.126;5.572;2023-11-19T14:14:51;23.88;;;2.75;;
18249;SDS011;27980;52.126;5.572;2023-11-19T14:17:18;17.98;;;2.97;;
18249;SDS011;27980;52.126;5.572;2023-11-19T14:19:46;14.05;;;2.80;;
18249;SDS011;27980;52.126;5.572;2023-11-19T14:22:12;25.13;;;4.15;;
18249;SDS011;27980;52.126;5.572;2023-11-19T14:24:38;15.43;;;3.00;;
18249;SDS011;27980;52.126;5.572;2023-11-19T14:27:07;26.83;;;3.13;;
18249;SDS011;27980;52.126;5.572;2023-11-19T14:29:33;14.65;;;2.83;;
18249;SDS011;27980;52.126;5.572;2023-11-19T14:31:59;18.60;;;3.05;;
18249;SDS011;27980;52.126;5.572;2023-11-19T14:34:26;14.68;;;2.53;;
18249;SDS011;27980;52.126;5.572;2023-11-19T14:36:54;18.45;;;3.15;;
18249;SDS011;27980;52.126;5.572;2023-11-19T14:39:20;24.50;;;2.83;;